Time;durP1;ratioP1;P1;durP2;ratioP2;P2;SDS_P1;SDS_P2;PMS_P1;PMS_P2;Temp;Humidity;BMP_temperature;BMP_pressure;BME280_temperature;BME280_humidity;BME280_pressure;Samples;Min_cycle;Max_cycle;Signal;HPM_P1;HPM_P2
2022/11/24 00:01:54;;;;;;;;;;;;;;;17.68;53.14;99859.83;102157;1331;62125;-84
2022/11/24 00:04:19;;;;;;;;;;;;;;;17.68;53.04;99858.19;102086;1332;62475;-83
2022/11/24 00:06:45;;;;;;;;;;;;;;;17.68;53.16;99863.54;102110;1332;62126;-83
2022/11/24 00:09:10;;;;;;;;;;;;;;;17.68;53.08;99863.21;102129;1325;62126;-84
2022/11/24 00:11:36;;;;;;;;;;;;;;;17.68;53.14;99860.73;102118;1325;62163;-84
2022/11/24 00:14:01;;;;;;;;;;;;;;;17.68;53.15;99857.71;102162;1325;62083;-84
2022/11/24 00:16:32;;;;;;;;;;;;;;;17.68;53.12;99856.44;102092;1330;75399;-83
2022/11/24 00:18:58;;;;;;;;;;;;;;;17.67;53.21;99851.49;102117;1330;62132;-83
2022/11/24 00:21:24;;;;;;;;;;;;;;;17.68;53.08;99854.33;102096;1325;62103;-83
2022/11/24 00:23:50;;;;;;;;;;;;;;;17.67;53.05;99857.04;102102;1332;60773;-84
2022/11/24 00:26:16;;;;;;;;;;;;;;;17.68;53.05;99860.57;102102;1326;62159;-83
2022/11/24 00:28:42;;;;;;;;;;;;;;;17.68;53.08;99860.04;102135;1331;62093;-84
2022/11/24 00:31:23;;;;;;;;;;;;;;;17.67;53.03;99859.54;102096;1331;62100;-84
2022/11/24 00:33:49;;;;;;;;;;;;;;;17.67;53.06;99861.85;102190;1326;72116;-83
2022/11/24 00:36:15;;;;;;;;;;;;;;;17.67;53.15;99857.42;102119;1325;62135;-85
2022/11/24 00:38:40;;;;;;;;;;;;;;;17.67;53.13;99857.24;102148;1326;62188;-83
2022/11/24 00:41:06;;;;;;;;;;;;;;;17.67;53.05;99861.70;102078;1331;62243;-83
2022/11/24 00:43:31;;;;;;;;;;;;;;;17.67;53.17;99869.54;102073;1328;62132;-84
2022/11/24 00:45:57;;;;;;;;;;;;;;;17.66;53.15;99873.45;102152;1331;62199;-84
2022/11/24 00:48:22;;;;;;;;;;;;;;;17.67;53.14;99880.36;102080;1331;62245;-84
2022/11/24 00:50:57;;;;;;;;;;;;;;;17.67;53.10;99881.45;102105;1331;62138;-85
2022/11/24 00:53:23;;;;;;;;;;;;;;;17.66;53.05;99882.38;102141;1332;62109;-84
2022/11/24 00:55:49;;;;;;;;;;;;;;;17.66;53.09;99887.34;102126;1331;62159;-83
2022/11/24 00:58:14;;;;;;;;;;;;;;;17.66;53.08;99884.52;102144;1327;62156;-85
2022/11/24 01:00:39;;;;;;;;;;;;;;;17.66;53.12;99882.55;102182;1331;62134;-84
2022/11/24 01:03:06;;;;;;;;;;;;;;;17.66;52.95;99879.02;102132;1326;62303;-84
2022/11/24 01:05:34;;;;;;;;;;;;;;;17.66;52.99;99880.42;102076;1331;62189;-84
2022/11/24 01:08:00;;;;;;;;;;;;;;;17.66;53.18;99885.80;102121;1319;72612;-84
2022/11/24 01:10:25;;;;;;;;;;;;;;;17.66;53.12;99883.13;102084;1327;62621;-85
2022/11/24 01:12:51;;;;;;;;;;;;;;;17.65;53.05;99878.88;102119;1325;62097;-84
2022/11/24 01:15:16;;;;;;;;;;;;;;;17.65;53.01;99879.59;102100;1329;62154;-84
2022/11/24 01:17:44;;;;;;;;;;;;;;;17.65;52.89;99877.27;102126;1332;62131;-84
2022/11/24 01:20:09;;;;;;;;;;;;;;;17.65;53.03;99879.95;102109;1331;73688;-84
2022/11/24 01:22:37;;;;;;;;;;;;;;;17.65;52.90;99876.56;102098;1325;62589;-84
2022/11/24 01:25:03;;;;;;;;;;;;;;;17.65;52.90;99878.70;102115;1332;62093;-86
2022/11/24 01:27:28;;;;;;;;;;;;;;;17.65;52.98;99874.63;102119;1331;62130;-84
2022/11/24 01:29:53;;;;;;;;;;;;;;;17.65;53.00;99876.23;101933;1325;62207;-85
2022/11/24 01:32:19;;;;;;;;;;;;;;;17.65;52.89;99874.65;102001;1333;62136;-85
2022/11/24 01:34:44;;;;;;;;;;;;;;;17.65;52.95;99875.48;102062;1332;62197;-84
2022/11/24 01:37:10;;;;;;;;;;;;;;;17.65;52.90;99873.91;102005;1329;62236;-85
2022/11/24 01:39:36;;;;;;;;;;;;;;;17.65;52.96;99874.27;101984;1328;62113;-85
2022/11/24 01:42:01;;;;;;;;;;;;;;;17.65;52.89;99872.66;102057;1325;62116;-84
2022/11/24 01:44:27;;;;;;;;;;;;;;;17.65;52.88;99876.78;101935;1334;62125;-84
2022/11/24 01:47:13;;;;;;;;;;;;;;;17.66;52.87;99881.55;101991;1328;62034;-84
2022/11/24 01:49:40;;;;;;;;;;;;;;;17.65;52.91;99879.45;102079;1325;62113;-83
2022/11/24 01:52:05;;;;;;;;;;;;;;;17.65;52.85;99880.52;101976;1333;73706;-84
2022/11/24 01:54:32;;;;;;;;;;;;;;;17.65;52.91;99879.42;102064;1331;62214;-84
2022/11/24 01:56:59;;;;;;;;;;;;;;;17.65;52.85;99876.40;102076;1326;62232;-84
2022/11/24 01:59:25;;;;;;;;;;;;;;;17.65;52.92;99879.81;101973;1327;62038;-85
2022/11/24 02:01:50;;;;;;;;;;;;;;;17.65;52.79;99883.02;101948;1333;62126;-84
2022/11/24 02:04:16;;;;;;;;;;;;;;;17.64;52.79;99886.25;101954;1328;62129;-84
2022/11/24 02:06:42;;;;;;;;;;;;;;;17.64;52.92;99884.65;101996;1329;62154;-84
2022/11/24 02:09:12;;;;;;;;;;;;;;;17.65;52.91;99885.16;102005;1329;62132;-85
2022/11/24 02:11:38;;;;;;;;;;;;;;;17.64;52.84;99883.59;101997;1333;73810;-84
2022/11/24 02:14:04;;;;;;;;;;;;;;;17.64;52.76;99881.62;101955;1333;62101;-84
2022/11/24 02:16:33;;;;;;;;;;;;;;;17.65;52.89;99880.55;101978;1325;62161;-84
2022/11/24 02:18:58;;;;;;;;;;;;;;;17.64;52.79;99880.72;101968;1334;62073;-84
2022/11/24 02:21:24;;;;;;;;;;;;;;;17.64;52.80;99883.06;101952;1331;62142;-84
2022/11/24 02:23:52;;;;;;;;;;;;;;;17.64;52.73;99883.94;101965;1333;62159;-85
2022/11/24 02:26:27;;;;;;;;;;;;;;;17.64;52.81;99881.83;102116;1328;62043;-84
2022/11/24 02:28:52;;;;;;;;;;;;;;;17.64;52.91;99888.74;102154;1324;62056;-84
2022/11/24 02:31:18;;;;;;;;;;;;;;;17.64;52.79;99892.50;102096;1327;62144;-84
2022/11/24 02:33:43;;;;;;;;;;;;;;;17.64;52.78;99890.39;102099;1327;62201;-84
2022/11/24 02:36:09;;;;;;;;;;;;;;;17.64;52.69;99895.01;102204;1329;60034;-85
2022/11/24 02:38:34;;;;;;;;;;;;;;;17.64;52.66;99891.97;102141;1329;62161;-84
2022/11/24 02:41:04;;;;;;;;;;;;;;;17.63;52.77;99890.23;102171;1326;62240;-83
2022/11/24 02:43:31;;;;;;;;;;;;;;;17.64;52.60;99890.73;102109;1325;73179;-84
2022/11/24 02:45:56;;;;;;;;;;;;;;;17.64;52.75;99894.13;102119;1331;75243;-84
2022/11/24 02:48:22;;;;;;;;;;;;;;;17.63;52.70;99898.77;102121;1331;62095;-85
2022/11/24 02:50:47;;;;;;;;;;;;;;;17.64;52.71;99903.02;102078;1325;62134;-84
2022/11/24 02:53:13;;;;;;;;;;;;;;;17.63;52.65;99898.41;102110;1326;62131;-85
2022/11/24 02:55:38;;;;;;;;;;;;;;;17.63;52.73;99896.84;102147;1329;62158;-84
2022/11/24 02:58:04;;;;;;;;;;;;;;;17.64;52.78;99894.80;102161;1332;61979;-83
2022/11/24 03:00:29;;;;;;;;;;;;;;;17.64;52.64;99899.47;102111;1325;62182;-84
2022/11/24 03:02:54;;;;;;;;;;;;;;;17.63;52.65;99901.44;102100;1327;62200;-83
2022/11/24 03:05:20;;;;;;;;;;;;;;;17.63;52.76;99906.27;102116;1325;62189;-85
2022/11/24 03:07:45;;;;;;;;;;;;;;;17.63;52.74;99904.86;102146;1325;62190;-83
2022/11/24 03:10:11;;;;;;;;;;;;;;;17.63;52.55;99907.31;102095;1329;62088;-85
2022/11/24 03:12:36;;;;;;;;;;;;;;;17.63;52.66;99905.55;102139;1330;62124;-84
2022/11/24 03:15:02;;;;;;;;;;;;;;;17.63;52.59;99906.79;102112;1326;62217;-84
2022/11/24 03:17:27;;;;;;;;;;;;;;;17.63;52.63;99903.77;102116;1325;62216;-84
2022/11/24 03:19:53;;;;;;;;;;;;;;;17.63;52.55;99902.36;102129;1325;62119;-82
2022/11/24 03:22:18;;;;;;;;;;;;;;;17.63;52.62;99903.27;102127;1323;62063;-85
2022/11/24 03:24:44;;;;;;;;;;;;;;;17.63;52.55;99901.84;102131;1326;62724;-84
2022/11/24 03:27:09;;;;;;;;;;;;;;;17.63;52.55;99903.09;102121;1313;63311;-84
2022/11/24 03:29:34;;;;;;;;;;;;;;;17.63;52.50;99905.58;102126;1326;62150;-84
2022/11/24 03:32:00;;;;;;;;;;;;;;;17.62;52.50;99906.84;102114;1326;72800;-84
2022/11/24 03:34:26;;;;;;;;;;;;;;;17.63;52.55;99908.27;102108;1330;62162;-84
2022/11/24 03:36:52;;;;;;;;;;;;;;;17.62;52.58;99910.24;102121;1328;62084;-85
2022/11/24 03:39:17;;;;;;;;;;;;;;;17.62;52.63;99908.65;102104;1325;62204;-85
2022/11/24 03:41:43;;;;;;;;;;;;;;;17.62;52.60;99910.78;102070;1333;62159;-85
2022/11/24 03:44:08;;;;;;;;;;;;;;;17.62;52.60;99907.60;102142;1325;62278;-85
2022/11/24 03:46:34;;;;;;;;;;;;;;;17.62;52.68;99906.88;102089;1327;62225;-84
2022/11/24 03:48:59;;;;;;;;;;;;;;;17.62;52.50;99907.25;102106;1325;62168;-84
2022/11/24 03:51:25;;;;;;;;;;;;;;;17.61;52.54;99910.13;102106;1331;60821;-84
2022/11/24 03:53:50;;;;;;;;;;;;;;;17.62;52.49;99911.54;102097;1331;62154;-85
2022/11/24 03:56:16;;;;;;;;;;;;;;;17.62;52.53;99909.20;102137;1325;62091;-85
2022/11/24 03:58:41;;;;;;;;;;;;;;;17.62;52.45;99905.13;102128;1331;62014;-84
2022/11/24 04:01:06;;;;;;;;;;;;;;;17.62;52.50;99909.38;102125;1325;62154;-84
2022/11/24 04:03:32;;;;;;;;;;;;;;;17.62;52.42;99911.55;102076;1325;62184;-84
2022/11/24 04:05:57;;;;;;;;;;;;;;;17.62;52.54;99915.77;102114;1333;62123;-84
2022/11/24 04:08:23;;;;;;;;;;;;;;;17.62;52.41;99920.61;102138;1331;60469;-84
2022/11/24 04:10:49;;;;;;;;;;;;;;;17.62;52.46;99916.88;102101;1329;62155;-83
2022/11/24 04:13:15;;;;;;;;;;;;;;;17.61;52.35;99920.98;102152;1323;62130;-82
2022/11/24 04:15:40;;;;;;;;;;;;;;;17.61;52.52;99918.15;102116;1323;62001;-84
2022/11/24 04:18:06;;;;;;;;;;;;;;;17.62;52.48;99922.04;102103;1326;62057;-84
2022/11/24 04:20:32;;;;;;;;;;;;;;;17.62;52.45;99923.11;102122;1329;62198;-85
2022/11/24 04:22:57;;;;;;;;;;;;;;;17.61;52.42;99924.00;102133;1330;62125;-85
2022/11/24 04:25:23;;;;;;;;;;;;;;;17.61;52.46;99930.05;102123;1325;62185;-84
2022/11/24 04:27:51;;;;;;;;;;;;;;;17.61;52.31;99930.59;102125;1331;62197;-84
2022/11/24 04:30:17;;;;;;;;;;;;;;;17.61;52.44;99931.15;102125;1325;72493;-84
2022/11/24 04:32:42;;;;;;;;;;;;;;;17.61;52.32;99930.44;102118;1329;62238;-83
2022/11/24 04:35:34;;;;;;;;;;;;;;;17.61;52.31;99933.09;102188;1326;62128;-84
2022/11/24 04:38:02;;;;;;;;;;;;;;;17.61;52.47;99931.31;101857;1332;62153;-84
2022/11/24 04:40:28;;;;;;;;;;;;;;;17.61;52.33;99931.33;101822;1326;73682;-84
2022/11/24 04:42:54;;;;;;;;;;;;;;;17.61;52.39;99932.56;101812;1337;62291;-84
2022/11/24 04:45:19;;;;;;;;;;;;;;;17.61;52.31;99936.13;101858;1333;62222;-85
2022/11/24 04:47:45;;;;;;;;;;;;;;;17.61;52.49;99943.60;101847;1331;62214;-84
2022/11/24 04:50:10;;;;;;;;;;;;;;;17.61;52.33;99952.50;101878;1332;62239;-84
2022/11/24 04:52:36;;;;;;;;;;;;;;;17.61;52.18;99950.54;101853;1331;72489;-84
2022/11/24 04:55:02;;;;;;;;;;;;;;;17.61;52.33;99952.48;101800;1335;62125;-84
2022/11/24 04:57:29;;;;;;;;;;;;;;;17.61;52.35;99950.37;101828;1337;62282;-84
2022/11/24 04:59:55;;;;;;;;;;;;;;;17.61;52.29;99950.90;101827;1335;60454;-85
2022/11/24 05:02:20;;;;;;;;;;;;;;;17.61;52.21;99954.30;101856;1331;62001;-84
2022/11/24 05:04:46;;;;;;;;;;;;;;;17.61;52.29;99955.34;101779;1340;62398;-84
2022/11/24 05:07:12;;;;;;;;;;;;;;;17.60;52.31;99956.98;101879;1338;62149;-85
2022/11/24 05:10:33;;;;;;;;;;;;;;;17.60;52.27;99958.43;101792;1338;62173;-81
2022/11/24 05:12:23;;;;;;;;;;;;;;;17.60;52.26;99963.77;101798;1331;62188;-84
2022/11/24 05:14:50;;;;;;;;;;;;;;;17.59;52.29;99961.33;101932;1326;62009;-84
2022/11/24 05:17:15;;;;;;;;;;;;;;;17.60;52.30;99967.34;102106;1324;62042;-84
2022/11/24 05:19:41;;;;;;;;;;;;;;;17.59;52.15;99968.23;102126;1329;62131;-84
2022/11/24 05:22:07;;;;;;;;;;;;;;;17.59;52.12;99971.97;102115;1325;62130;-85
2022/11/24 05:24:32;;;;;;;;;;;;;;;17.59;52.27;99979.27;102089;1325;61955;-84
2022/11/24 05:26:58;;;;;;;;;;;;;;;17.59;52.11;99983.91;102070;1322;62145;-84
2022/11/24 05:29:24;;;;;;;;;;;;;;;17.59;52.11;99986.75;102072;1317;62083;-84
2022/11/24 05:31:49;;;;;;;;;;;;;;;17.59;52.14;99985.69;102121;1325;62129;-83
2022/11/24 05:34:16;;;;;;;;;;;;;;;17.59;52.21;99985.71;102107;1326;62086;-84
2022/11/24 05:36:55;;;;;;;;;;;;;;;17.59;52.14;99989.95;102094;1316;61005;-83
2022/11/24 05:39:20;;;;;;;;;;;;;;;17.59;52.09;99993.69;101976;1317;76475;-84
2022/11/24 05:41:46;;;;;;;;;;;;;;;17.60;52.13;99995.44;102094;1317;62073;-84
2022/11/24 05:44:11;;;;;;;;;;;;;;;17.61;52.12;99995.19;102097;1325;62094;-84
2022/11/24 05:46:37;;;;;;;;;;;;;;;17.64;52.09;100000.02;102081;1310;62236;-84
2022/11/24 05:49:02;;;;;;;;;;;;;;;17.65;52.05;100001.32;102022;1316;62344;-84
2022/11/24 05:51:27;;;;;;;;;;;;;;;17.66;52.16;100001.79;101596;1316;750914;-84
2022/11/24 05:53:53;;;;;;;;;;;;;;;17.66;52.14;100003.39;102143;1316;62237;-84
2022/11/24 05:56:19;;;;;;;;;;;;;;;17.65;52.11;100001.54;102047;1332;62146;-84
2022/11/24 05:58:44;;;;;;;;;;;;;;;17.66;52.21;99999.65;102040;1313;60666;-84
2022/11/24 06:01:10;;;;;;;;;;;;;;;17.65;52.10;100000.27;102165;1317;62105;-84
2022/11/24 06:03:35;;;;;;;;;;;;;;;17.58;52.05;99999.30;102226;1319;76268;-84
2022/11/24 06:06:01;;;;;;;;;;;;;;;17.54;52.23;100004.41;102093;1320;62164;-86
2022/11/24 06:08:26;;;;;;;;;;;;;;;17.53;52.21;100004.61;102084;1323;62199;-84
2022/11/24 06:10:51;;;;;;;;;;;;;;;17.53;52.24;100003.40;102152;1322;60293;-84
2022/11/24 06:13:17;;;;;;;;;;;;;;;17.52;52.20;100007.39;102068;1317;62232;-84
2022/11/24 06:15:44;;;;;;;;;;;;;;;17.51;52.17;100008.85;102036;1309;62154;-84
2022/11/24 06:18:09;;;;;;;;;;;;;;;17.50;52.16;100009.61;102041;1318;60066;-84
2022/11/24 06:20:35;;;;;;;;;;;;;;;17.50;52.14;100013.92;102016;1326;62109;-83
2022/11/24 06:23:00;;;;;;;;;;;;;;;17.49;52.22;100016.98;102048;1315;62764;-84
2022/11/24 06:25:25;;;;;;;;;;;;;;;17.49;52.08;100018.96;102010;1325;62132;-83
2022/11/24 06:27:51;;;;;;;;;;;;;;;17.50;52.07;100023.52;102237;1327;60951;-83
2022/11/24 06:30:16;;;;;;;;;;;;;;;17.51;52.06;100025.77;102035;1317;62124;-83
2022/11/24 06:32:43;;;;;;;;;;;;;;;17.52;52.02;100027.09;102038;1317;62125;-83
2022/11/24 06:35:11;;;;;;;;;;;;;;;17.54;51.92;100031.59;102085;1317;62122;-83
2022/11/24 06:37:36;;;;;;;;;;;;;;;17.56;52.07;100035.91;102077;1317;76598;-83
2022/11/24 06:40:02;;;;;;;;;;;;;;;17.58;51.88;100036.30;102016;1317;60638;-83
2022/11/24 06:42:27;;;;;;;;;;;;;;;17.61;51.97;100036.65;102055;1317;62111;-85
2022/11/24 06:44:53;;;;;;;;;;;;;;;17.63;51.88;100035.80;102002;1316;62195;-84
2022/11/24 06:47:18;;;;;;;;;;;;;;;17.65;51.95;100040.09;102056;1316;62105;-84
2022/11/24 06:49:44;;;;;;;;;;;;;;;17.67;51.89;100041.73;101979;1312;75708;-84
2022/11/24 06:52:09;;;;;;;;;;;;;;;17.70;51.93;100037.84;102096;1312;62082;-82
2022/11/24 06:54:36;;;;;;;;;;;;;;;17.71;51.88;100038.06;102055;1313;62125;-84
2022/11/24 06:57:01;;;;;;;;;;;;;;;17.72;51.99;100037.98;102166;1314;59894;-84
2022/11/24 06:59:26;;;;;;;;;;;;;;;17.74;52.11;100044.67;102184;1317;60870;-84
2022/11/24 07:01:52;;;;;;;;;;;;;;;17.77;52.24;100051.38;102064;1317;60900;-85
2022/11/24 07:04:17;;;;;;;;;;;;;;;17.78;52.09;100056.67;102041;1316;62185;-82
2022/11/24 07:06:43;;;;;;;;;;;;;;;17.76;52.16;100059.11;102133;1316;62199;-82
2022/11/24 07:09:11;;;;;;;;;;;;;;;17.76;52.36;100062.29;102077;1309;61943;-84
2022/11/24 07:11:37;;;;;;;;;;;;;;;17.78;52.21;100068.98;102018;1316;62074;-84
2022/11/24 07:14:03;;;;;;;;;;;;;;;17.79;52.33;100071.54;102090;1314;60460;-84
2022/11/24 07:16:30;;;;;;;;;;;;;;;17.81;52.29;100071.09;102024;1313;60294;-83
2022/11/24 07:18:55;;;;;;;;;;;;;;;17.82;52.20;100072.39;101977;1310;62336;-84
2022/11/24 07:21:21;;;;;;;;;;;;;;;17.84;52.33;100072.80;102030;1317;62122;-84
2022/11/24 07:23:53;;;;;;;;;;;;;;;17.85;52.36;100075.90;102118;1317;62152;-83
2022/11/24 07:26:19;;;;;;;;;;;;;;;17.88;52.43;100082.33;101981;1317;62145;-84
2022/11/24 07:28:44;;;;;;;;;;;;;;;17.90;52.30;100086.09;101988;1319;62249;-84
2022/11/24 07:31:11;;;;;;;;;;;;;;;17.93;52.46;100088.43;102031;1320;62218;-84
2022/11/24 07:33:36;;;;;;;;;;;;;;;17.96;52.44;100088.95;102035;1317;60409;-85
2022/11/24 07:36:02;;;;;;;;;;;;;;;17.99;52.50;100090.85;102031;1317;62274;-84
2022/11/24 07:38:27;;;;;;;;;;;;;;;18.02;52.51;100093.52;101997;1309;60353;-84
2022/11/24 07:40:53;;;;;;;;;;;;;;;18.02;52.64;100095.61;102061;1325;72321;-85
2022/11/24 07:43:18;;;;;;;;;;;;;;;18.03;52.50;100094.68;101989;1309;63162;-84
2022/11/24 07:45:50;;;;;;;;;;;;;;;18.03;52.43;100102.52;101967;1317;62252;-84
2022/11/24 07:48:15;;;;;;;;;;;;;;;18.03;52.61;100103.95;101983;1309;62076;-84
2022/11/24 07:50:41;;;;;;;;;;;;;;;18.03;52.45;100105.17;101982;1317;62152;-85
2022/11/24 07:53:06;;;;;;;;;;;;;;;18.03;52.49;100105.20;102037;1313;62069;-85
2022/11/24 07:55:31;;;;;;;;;;;;;;;18.03;52.33;100110.69;101989;1309;62096;-83
2022/11/24 07:57:59;;;;;;;;;;;;;;;18.05;52.61;100111.23;102063;1312;62199;-84
2022/11/24 08:00:26;;;;;;;;;;;;;;;18.07;52.67;100113.46;102553;1316;61237;-86
2022/11/24 08:02:51;;;;;;;;;;;;;;;18.03;52.51;100115.02;102088;1317;72616;-84
2022/11/24 08:05:17;;;;;;;;;;;;;;;18.00;52.65;100116.73;102053;1317;60132;-84
2022/11/24 08:07:42;;;;;;;;;;;;;;;18.01;52.58;100123.69;102047;1317;62168;-84
2022/11/24 08:10:08;;;;;;;;;;;;;;;17.98;52.69;100127.95;102137;1316;62122;-83
2022/11/24 08:12:33;;;;;;;;;;;;;;;17.94;52.66;100124.27;102111;1313;62114;-82
2022/11/24 08:15:00;;;;;;;;;;;;;;;17.93;52.56;100135.23;102079;1317;62669;-82
2022/11/24 08:17:29;;;;;;;;;;;;;;;17.94;52.70;100134.27;102125;1317;62143;-83
2022/11/24 08:19:54;;;;;;;;;;;;;;;17.95;52.54;100138.33;102049;1309;62120;-80
2022/11/24 08:22:20;;;;;;;;;;;;;;;17.97;52.60;100138.92;102098;1317;60319;-83
2022/11/24 08:24:47;;;;;;;;;;;;;;;17.98;52.56;100140.98;102202;1316;62081;-83
2022/11/24 08:27:13;;;;;;;;;;;;;;;18.00;52.72;100142.09;102183;1310;60527;-83
2022/11/24 08:29:39;;;;;;;;;;;;;;;18.06;52.94;100139.50;102106;1317;62128;-83
2022/11/24 08:32:04;;;;;;;;;;;;;;;18.17;53.13;100136.79;102044;1316;63937;-85
2022/11/24 08:34:30;;;;;;;;;;;;;;;18.22;53.19;100137.33;101972;1310;62219;-84
2022/11/24 08:36:56;;;;;;;;;;;;;;;18.23;53.11;100137.23;102039;1317;60227;-83
2022/11/24 08:39:21;;;;;;;;;;;;;;;18.25;53.18;100138.56;101974;1315;62278;-82
2022/11/24 08:41:47;;;;;;;;;;;;;;;18.25;53.17;100137.65;102018;1310;62047;-83
2022/11/24 08:44:14;;;;;;;;;;;;;;;18.26;53.23;100134.96;102001;1317;60663;-82
2022/11/24 08:46:43;;;;;;;;;;;;;;;18.27;53.21;100134.52;101980;1317;72626;-83
2022/11/24 08:49:09;;;;;;;;;;;;;;;18.28;53.18;100133.03;102001;1316;62224;-83
2022/11/24 08:51:34;;;;;;;;;;;;;;;18.29;53.13;100131.73;102052;1319;62244;-83
2022/11/24 08:54:00;;;;;;;;;;;;;;;18.29;53.13;100135.45;102241;1317;62247;-84
2022/11/24 08:56:30;;;;;;;;;;;;;;;18.29;53.05;100134.20;102153;1319;60811;-84
2022/11/24 08:58:55;;;;;;;;;;;;;;;18.29;53.28;100137.08;102070;1316;74263;-82
2022/11/24 09:01:21;;;;;;;;;;;;;;;18.29;53.18;100144.70;102180;1317;62116;-84
2022/11/24 09:03:47;;;;;;;;;;;;;;;18.26;53.05;100140.80;102223;1318;62126;-83
2022/11/24 09:06:12;;;;;;;;;;;;;;;18.25;53.13;100140.88;102136;1317;62292;-83
2022/11/24 09:08:38;;;;;;;;;;;;;;;18.25;53.22;100141.23;102164;1313;60430;-84
2022/11/24 09:11:06;;;;;;;;;;;;;;;18.25;53.19;100141.40;102151;1317;75702;-85
2022/11/24 09:13:31;;;;;;;;;;;;;;;18.22;53.04;100142.84;102171;1320;60709;-84
2022/11/24 09:16:10;;;;;;;;;;;;;;;18.21;53.22;100143.48;102078;1317;62095;-84
2022/11/24 09:18:36;;;;;;;;;;;;;;;18.20;53.22;100144.59;102122;1317;72584;-84
2022/11/24 09:21:06;;;;;;;;;;;;;;;18.20;53.13;100148.48;102119;1315;62218;-83
2022/11/24 09:23:32;;;;;;;;;;;;;;;18.20;53.18;100150.80;102060;1317;61814;-83
2022/11/24 09:26:08;;;;;;;;;;;;;;;18.21;53.21;100151.13;102050;1316;62139;-82
2022/11/24 09:28:33;;;;;;;;;;;;;;;18.21;53.22;100146.65;102073;1317;72787;-84
2022/11/24 09:31:02;;;;;;;;;;;;;;;18.22;53.27;100148.94;102071;1317;62118;-84
2022/11/24 09:33:28;;;;;;;;;;;;;;;18.23;53.38;100150.62;102188;1317;62058;-82
2022/11/24 09:35:54;;;;;;;;;;;;;;;18.25;53.42;100149.63;102178;1316;62070;-83
2022/11/24 09:38:20;;;;;;;;;;;;;;;18.28;53.42;100150.13;101947;1312;62227;-82
2022/11/24 09:40:45;;;;;;;;;;;;;;;18.30;53.58;100153.23;102073;1316;62534;-83
2022/11/24 09:43:31;;;;;;;;;;;;;;;18.31;53.52;100153.67;102164;1309;60657;-82
2022/11/24 09:46:02;;;;;;;;;;;;;;;18.32;53.53;100150.92;102428;1323;61968;-82
2022/11/24 09:48:38;;;;;;;;;;;;;;;18.34;53.44;100151.33;102111;1317;73584;-82
2022/11/24 09:51:04;;;;;;;;;;;;;;;18.34;53.50;100153.10;102066;1322;75313;-83
2022/11/24 09:53:44;;;;;;;;;;;;;;;18.35;53.60;100149.83;102066;1317;62104;-84
2022/11/24 09:56:19;;;;;;;;;;;;;;;18.37;53.53;100149.52;102042;1316;61967;-83
2022/11/24 09:58:49;;;;;;;;;;;;;;;18.37;53.58;100148.23;102093;1326;73672;-83
2022/11/24 10:01:18;;;;;;;;;;;;;;;18.36;53.51;100142.58;102133;1316;76312;-83
2022/11/24 10:03:46;;;;;;;;;;;;;;;18.35;53.70;100136.07;102136;1317;62173;-83
2022/11/24 10:06:18;;;;;;;;;;;;;;;18.34;53.60;100137.80;102068;1309;62161;-84
2022/11/24 10:09:10;;;;;;;;;;;;;;;18.23;53.40;100136.58;102095;1313;72643;-84
2022/11/24 10:11:37;;;;;;;;;;;;;;;18.11;53.31;100135.64;101942;1312;75573;-84
2022/11/24 10:14:06;;;;;;;;;;;;;;;18.06;53.42;100133.63;102162;1310;62606;-84
2022/11/24 10:16:41;;;;;;;;;;;;;;;18.05;53.50;100134.76;102140;1323;62082;-83
2022/11/24 10:19:13;;;;;;;;;;;;;;;18.05;53.50;100130.54;102132;1325;72940;-84
2022/11/24 10:21:55;;;;;;;;;;;;;;;18.05;53.22;100136.02;102924;1328;76215;-84
2022/11/24 10:24:35;;;;;;;;;;;;;;;17.99;53.29;100137.84;102221;1313;62109;-84
2022/11/24 10:27:27;;;;;;;;;;;;;;;17.96;53.38;100135.05;101998;1319;62024;-83
2022/11/24 10:29:53;;;;;;;;;;;;;;;18.02;53.66;100133.76;102062;1309;72817;-83
2022/11/24 10:32:19;;;;;;;;;;;;;;;18.09;53.55;100131.86;101971;1325;62187;-84
2022/11/24 10:34:49;;;;;;;;;;;;;;;18.15;53.58;100130.21;102102;1310;62088;-83
2022/11/24 10:37:27;;;;;;;;;;;;;;;18.18;53.59;100127.51;102051;1316;62025;-84
2022/11/24 10:40:03;;;;;;;;;;;;;;;18.22;53.48;100133.95;101945;1313;73613;-84
2022/11/24 10:42:29;;;;;;;;;;;;;;;18.25;53.41;100133.94;101983;1312;76211;-84
2022/11/24 10:45:01;;;;;;;;;;;;;;;18.25;53.21;100132.86;102001;1325;62073;-83
2022/11/24 10:47:29;;;;;;;;;;;;;;;18.26;53.19;100134.20;102029;1317;62134;-84
2022/11/24 10:50:02;;;;;;;;;;;;;;;18.29;53.11;100131.35;101904;1319;72947;-84
2022/11/24 10:52:28;;;;;;;;;;;;;;;18.33;52.98;100131.64;102040;1325;75553;-86
2022/11/24 10:54:58;;;;;;;;;;;;;;;18.34;52.75;100128.69;101916;1313;62205;-85
2022/11/24 10:57:30;;;;;;;;;;;;;;;18.34;52.66;100125.83;101992;1317;62133;-85
2022/11/24 11:00:18;;;;;;;;;;;;;;;18.34;52.61;100124.07;102017;1317;73693;-85
2022/11/24 11:02:45;;;;;;;;;;;;;;;18.30;52.45;100130.07;101642;1325;75071;-84
2022/11/24 11:05:30;;;;;;;;;;;;;;;18.21;52.39;100124.23;101489;1325;62078;-85
2022/11/24 11:08:22;;;;;;;;;;;;;;;18.08;52.34;100121.23;102200;1335;61309;-85
2022/11/24 11:10:50;;;;;;;;;;;;;;;17.93;52.39;100125.42;102252;1331;72598;-84
2022/11/24 11:13:23;;;;;;;;;;;;;;;17.91;52.64;100125.23;102256;1341;76211;-83
2022/11/24 11:15:48;;;;;;;;;;;;;;;17.87;52.52;100125.10;102228;1337;60233;-84
2022/11/24 11:18:15;;;;;;;;;;;;;;;17.86;52.52;100126.24;102450;1339;60995;-84
2022/11/24 11:20:40;;;;;;;;;;;;;;;17.88;52.72;100123.77;102353;1332;59342;-84
2022/11/24 11:23:13;;;;;;;;;;;;;;;17.93;52.78;100122.78;102441;1340;60195;-84
2022/11/24 11:25:39;;;;;;;;;;;;;;;17.97;52.98;100123.39;102384;1335;61276;-85
2022/11/24 11:28:22;;;;;;;;;;;;;;;18.00;53.14;100115.16;101751;1325;60476;-84
2022/11/24 11:31:01;;;;;;;;;;;;;;;18.03;53.21;100121.00;102527;1339;74589;-84
2022/11/24 11:33:27;;;;;;;;;;;;;;;18.07;53.09;100121.11;101671;1325;75408;-85
2022/11/24 11:35:53;;;;;;;;;;;;;;;18.10;53.22;100121.07;101538;1325;60910;-84
2022/11/24 11:38:18;;;;;;;;;;;;;;;18.11;53.07;100122.95;101691;1323;60544;-84
2022/11/24 11:40:44;;;;;;;;;;;;;;;18.11;53.10;100121.75;101985;1317;62244;-85
2022/11/24 11:43:21;;;;;;;;;;;;;;;18.11;53.06;100121.36;101973;1309;62151;-84
2022/11/24 11:45:46;;;;;;;;;;;;;;;18.13;53.08;100119.77;102037;1313;62093;-85
2022/11/24 11:48:21;;;;;;;;;;;;;;;18.15;53.10;100120.23;101984;1316;62115;-84
2022/11/24 11:50:51;;;;;;;;;;;;;;;18.16;52.99;100118.73;102039;1313;73433;-84
2022/11/24 11:53:22;;;;;;;;;;;;;;;18.16;52.94;100126.05;101971;1309;75223;-86
2022/11/24 11:56:06;;;;;;;;;;;;;;;18.15;53.09;100124.85;102044;1309;60117;-85
2022/11/24 11:58:37;;;;;;;;;;;;;;;18.14;53.09;100123.13;102138;1317;62112;-85
2022/11/24 12:01:18;;;;;;;;;;;;;;;18.13;53.01;100122.10;102103;1313;73671;-84
2022/11/24 12:03:44;;;;;;;;;;;;;;;18.09;52.90;100119.88;102178;1323;75349;-87
2022/11/24 12:06:14;;;;;;;;;;;;;;;17.99;52.82;100122.36;102141;1317;62189;-84
2022/11/24 12:08:58;;;;;;;;;;;;;;;17.92;52.84;100119.78;102227;1318;62733;-84
2022/11/24 12:11:30;;;;;;;;;;;;;;;17.92;52.90;100117.83;102194;1317;73031;-84
2022/11/24 12:14:10;;;;;;;;;;;;;;;17.94;52.94;100112.00;101749;1309;76275;-83
2022/11/24 12:16:38;;;;;;;;;;;;;;;17.93;52.95;100102.80;102200;1314;60334;-84
2022/11/24 12:19:03;;;;;;;;;;;;;;;17.93;53.02;100103.00;102126;1331;62081;-84
2022/11/24 12:21:32;;;;;;;;;;;;;;;17.92;52.84;100105.58;102167;1324;62239;-84
2022/11/24 12:24:17;;;;;;;;;;;;;;;17.90;52.86;100102.80;102156;1313;76416;-84
2022/11/24 12:26:45;;;;;;;;;;;;;;;17.91;52.84;100105.63;102043;1325;62124;-84
2022/11/24 12:29:14;;;;;;;;;;;;;;;17.91;52.86;100109.20;102066;1313;62018;-85
2022/11/24 12:31:58;;;;;;;;;;;;;;;17.91;52.72;100111.66;101975;1317;72498;-85
2022/11/24 12:34:32;;;;;;;;;;;;;;;17.93;52.70;100113.01;102058;1317;76415;-85